sensor_id;sensor_type;location;lat;lon;timestamp;temperature;humidity
42201;DHT22;27869;51.442;7.540;2024-01-15T00:00:59;1.20;99.90
42201;DHT22;27869;51.442;7.540;2024-01-15T00:03:27;1.20;99.90
42201;DHT22;27869;51.442;7.540;2024-01-15T00:05:54;1.20;99.90
42201;DHT22;27869;51.442;7.540;2024-01-15T00:08:21;1.20;99.90
42201;DHT22;27869;51.442;7.540;2024-01-15T00:10:48;1.20;99.90
42201;DHT22;27869;51.442;7.540;2024-01-15T00:13:15;1.20;99.90
42201;DHT22;27869;51.442;7.540;2024-01-15T00:15:42;1.20;99.90
42201;DHT22;27869;51.442;7.540;2024-01-15T00:18:09;1.20;99.90
42201;DHT22;27869;51.442;7.540;2024-01-15T00:20:37;1.20;99.90
42201;DHT22;27869;51.442;7.540;2024-01-15T00:23:04;1.20;99.90
42201;DHT22;27869;51.442;7.540;2024-01-15T00:25:31;1.20;99.90
42201;DHT22;27869;51.442;7.540;2024-01-15T00:27:58;1.20;99.90
42201;DHT22;27869;51.442;7.540;2024-01-15T00:30:24;1.20;99.90
42201;DHT22;27869;51.442;7.540;2024-01-15T00:32:52;1.20;99.90
42201;DHT22;27869;51.442;7.540;2024-01-15T00:35:19;1.20;99.90
42201;DHT22;27869;51.442;7.540;2024-01-15T00:37:47;1.20;99.90
42201;DHT22;27869;51.442;7.540;2024-01-15T00:40:14;1.20;99.90
42201;DHT22;27869;51.442;7.540;2024-01-15T00:42:41;1.20;99.90
42201;DHT22;27869;51.442;7.540;2024-01-15T00:45:09;1.20;99.90
42201;DHT22;27869;51.442;7.540;2024-01-15T00:47:36;1.20;99.90
42201;DHT22;27869;51.442;7.540;2024-01-15T00:50:03;1.20;99.90
42201;DHT22;27869;51.442;7.540;2024-01-15T00:52:30;1.20;99.90
42201;DHT22;27869;51.442;7.540;2024-01-15T00:54:58;1.20;99.90
42201;DHT22;27869;51.442;7.540;2024-01-15T00:57:25;1.20;99.90
42201;DHT22;27869;51.442;7.540;2024-01-15T00:59:52;1.20;99.90
42201;DHT22;27869;51.442;7.540;2024-01-15T01:02:19;1.20;99.90
42201;DHT22;27869;51.442;7.540;2024-01-15T01:04:46;1.20;99.90
42201;DHT22;27869;51.442;7.540;2024-01-15T01:07:13;1.20;99.90
42201;DHT22;27869;51.442;7.540;2024-01-15T01:09:40;1.20;99.90
42201;DHT22;27869;51.442;7.540;2024-01-15T01:12:08;1.30;99.90
42201;DHT22;27869;51.442;7.540;2024-01-15T01:14:35;1.30;99.90
42201;DHT22;27869;51.442;7.540;2024-01-15T01:17:02;1.30;99.90
42201;DHT22;27869;51.442;7.540;2024-01-15T01:19:29;1.30;99.90
42201;DHT22;27869;51.442;7.540;2024-01-15T01:21:56;1.30;99.90
42201;DHT22;27869;51.442;7.540;2024-01-15T01:24:22;1.30;99.90
42201;DHT22;27869;51.442;7.540;2024-01-15T01:26:49;1.30;99.90
42201;DHT22;27869;51.442;7.540;2024-01-15T01:29:18;1.30;99.90
42201;DHT22;27869;51.442;7.540;2024-01-15T01:31:45;1.30;99.90
42201;DHT22;27869;51.442;7.540;2024-01-15T01:34:14;1.30;99.90
42201;DHT22;27869;51.442;7.540;2024-01-15T01:36:41;1.30;99.90
42201;DHT22;27869;51.442;7.540;2024-01-15T01:39:09;1.30;99.90
42201;DHT22;27869;51.442;7.540;2024-01-15T01:41:36;1.30;99.90
42201;DHT22;27869;51.442;7.540;2024-01-15T01:44:03;1.30;99.90
42201;DHT22;27869;51.442;7.540;2024-01-15T01:46:32;1.30;99.90
42201;DHT22;27869;51.442;7.540;2024-01-15T01:48:59;1.30;99.90
42201;DHT22;27869;51.442;7.540;2024-01-15T01:51:31;1.30;99.90
42201;DHT22;27869;51.442;7.540;2024-01-15T01:53:58;1.30;99.90
42201;DHT22;27869;51.442;7.540;2024-01-15T01:56:25;1.30;99.90
42201;DHT22;27869;51.442;7.540;2024-01-15T01:58:53;1.30;99.90
42201;DHT22;27869;51.442;7.540;2024-01-15T02:01:22;1.30;99.90
42201;DHT22;27869;51.442;7.540;2024-01-15T02:03:50;1.40;99.90
42201;DHT22;27869;51.442;7.540;2024-01-15T02:06:17;1.40;99.90
42201;DHT22;27869;51.442;7.540;2024-01-15T02:08:44;1.40;99.90
42201;DHT22;27869;51.442;7.540;2024-01-15T02:11:11;1.40;99.90
42201;DHT22;27869;51.442;7.540;2024-01-15T02:13:39;1.40;99.90
42201;DHT22;27869;51.442;7.540;2024-01-15T02:16:06;1.40;99.90
42201;DHT22;27869;51.442;7.540;2024-01-15T02:18:40;1.40;99.90
42201;DHT22;27869;51.442;7.540;2024-01-15T02:21:09;1.40;99.90
42201;DHT22;27869;51.442;7.540;2024-01-15T02:23:38;1.40;99.90
42201;DHT22;27869;51.442;7.540;2024-01-15T02:26:05;1.40;99.90
42201;DHT22;27869;51.442;7.540;2024-01-15T02:28:33;1.40;99.90
42201;DHT22;27869;51.442;7.540;2024-01-15T02:30:59;1.40;99.90
42201;DHT22;27869;51.442;7.540;2024-01-15T02:33:26;1.40;99.90
42201;DHT22;27869;51.442;7.540;2024-01-15T02:35:53;1.40;99.90
42201;DHT22;27869;51.442;7.540;2024-01-15T02:38:20;1.40;99.90
42201;DHT22;27869;51.442;7.540;2024-01-15T02:40:49;1.40;99.90
42201;DHT22;27869;51.442;7.540;2024-01-15T02:43:16;1.40;99.90
42201;DHT22;27869;51.442;7.540;2024-01-15T02:45:44;1.40;99.90
42201;DHT22;27869;51.442;7.540;2024-01-15T02:48:12;1.40;99.90
42201;DHT22;27869;51.442;7.540;2024-01-15T02:50:39;1.40;99.90
42201;DHT22;27869;51.442;7.540;2024-01-15T02:53:06;1.40;99.90
42201;DHT22;27869;51.442;7.540;2024-01-15T02:55:33;1.40;99.90
42201;DHT22;27869;51.442;7.540;2024-01-15T02:58:01;1.40;99.90
42201;DHT22;27869;51.442;7.540;2024-01-15T03:00:28;1.40;99.90
42201;DHT22;27869;51.442;7.540;2024-01-15T03:02:55;1.40;99.90
42201;DHT22;27869;51.442;7.540;2024-01-15T03:05:22;1.40;99.90
42201;DHT22;27869;51.442;7.540;2024-01-15T03:07:49;1.40;99.90
42201;DHT22;27869;51.442;7.540;2024-01-15T03:10:16;1.40;99.90
42201;DHT22;27869;51.442;7.540;2024-01-15T03:12:43;1.40;99.90
42201;DHT22;27869;51.442;7.540;2024-01-15T03:15:11;1.40;99.90
42201;DHT22;27869;51.442;7.540;2024-01-15T03:17:38;1.40;99.90
42201;DHT22;27869;51.442;7.540;2024-01-15T03:20:06;1.40;99.90
42201;DHT22;27869;51.442;7.540;2024-01-15T03:22:33;1.40;99.90
42201;DHT22;27869;51.442;7.540;2024-01-15T03:25:00;1.40;99.90
42201;DHT22;27869;51.442;7.540;2024-01-15T03:27:26;1.40;99.90
42201;DHT22;27869;51.442;7.540;2024-01-15T03:29:53;1.40;99.90
42201;DHT22;27869;51.442;7.540;2024-01-15T03:32:22;1.40;99.90
42201;DHT22;27869;51.442;7.540;2024-01-15T03:34:49;1.40;99.90
42201;DHT22;27869;51.442;7.540;2024-01-15T03:37:17;1.40;99.90
42201;DHT22;27869;51.442;7.540;2024-01-15T03:39:45;1.30;99.90
42201;DHT22;27869;51.442;7.540;2024-01-15T03:42:12;1.30;99.90
42201;DHT22;27869;51.442;7.540;2024-01-15T03:44:40;1.40;99.90
42201;DHT22;27869;51.442;7.540;2024-01-15T03:47:06;1.40;99.90
42201;DHT22;27869;51.442;7.540;2024-01-15T03:49:35;1.40;99.90
42201;DHT22;27869;51.442;7.540;2024-01-15T03:52:01;1.40;99.90
42201;DHT22;27869;51.442;7.540;2024-01-15T03:54:28;1.40;99.90
42201;DHT22;27869;51.442;7.540;2024-01-15T03:56:55;1.40;99.90
42201;DHT22;27869;51.442;7.540;2024-01-15T03:59:22;1.40;99.90
42201;DHT22;27869;51.442;7.540;2024-01-15T04:01:49;1.40;99.90
42201;DHT22;27869;51.442;7.540;2024-01-15T04:04:16;1.40;99.90
42201;DHT22;27869;51.442;7.540;2024-01-15T04:06:45;1.40;99.90
42201;DHT22;27869;51.442;7.540;2024-01-15T04:09:12;1.40;99.90
42201;DHT22;27869;51.442;7.540;2024-01-15T04:11:39;1.40;99.90
42201;DHT22;27869;51.442;7.540;2024-01-15T04:14:06;1.40;99.90
42201;DHT22;27869;51.442;7.540;2024-01-15T04:16:33;1.40;99.90
42201;DHT22;27869;51.442;7.540;2024-01-15T04:19:00;1.40;99.90
42201;DHT22;27869;51.442;7.540;2024-01-15T04:21:27;1.40;99.90
42201;DHT22;27869;51.442;7.540;2024-01-15T04:23:55;1.50;99.90
42201;DHT22;27869;51.442;7.540;2024-01-15T04:26:22;1.50;99.90
42201;DHT22;27869;51.442;7.540;2024-01-15T04:28:48;1.50;99.90
42201;DHT22;27869;51.442;7.540;2024-01-15T04:31:23;1.50;99.90
42201;DHT22;27869;51.442;7.540;2024-01-15T04:33:50;1.50;99.90
42201;DHT22;27869;51.442;7.540;2024-01-15T04:36:17;1.50;99.90
42201;DHT22;27869;51.442;7.540;2024-01-15T04:38:44;1.50;99.90
42201;DHT22;27869;51.442;7.540;2024-01-15T04:41:13;1.50;99.90
42201;DHT22;27869;51.442;7.540;2024-01-15T04:43:40;1.50;99.90
42201;DHT22;27869;51.442;7.540;2024-01-15T04:46:07;1.50;99.90
42201;DHT22;27869;51.442;7.540;2024-01-15T04:48:35;1.50;99.90
42201;DHT22;27869;51.442;7.540;2024-01-15T04:51:04;1.50;99.90
42201;DHT22;27869;51.442;7.540;2024-01-15T04:53:31;1.50;99.90
42201;DHT22;27869;51.442;7.540;2024-01-15T04:55:58;1.50;99.90
42201;DHT22;27869;51.442;7.540;2024-01-15T04:58:26;1.50;99.90
42201;DHT22;27869;51.442;7.540;2024-01-15T05:00:53;1.50;99.90
42201;DHT22;27869;51.442;7.540;2024-01-15T05:03:20;1.50;99.90
42201;DHT22;27869;51.442;7.540;2024-01-15T05:05:47;1.50;99.90
42201;DHT22;27869;51.442;7.540;2024-01-15T05:08:14;1.50;99.90
42201;DHT22;27869;51.442;7.540;2024-01-15T05:10:41;1.50;99.90
42201;DHT22;27869;51.442;7.540;2024-01-15T05:13:08;1.50;99.90
42201;DHT22;27869;51.442;7.540;2024-01-15T05:15:36;1.50;99.90
42201;DHT22;27869;51.442;7.540;2024-01-15T05:18:03;1.50;99.90
42201;DHT22;27869;51.442;7.540;2024-01-15T05:20:30;1.50;99.90
42201;DHT22;27869;51.442;7.540;2024-01-15T05:22:57;1.50;99.90
42201;DHT22;27869;51.442;7.540;2024-01-15T05:25:24;1.50;99.90
42201;DHT22;27869;51.442;7.540;2024-01-15T05:27:51;1.50;99.90
42201;DHT22;27869;51.442;7.540;2024-01-15T05:30:18;1.50;99.90
42201;DHT22;27869;51.442;7.540;2024-01-15T05:32:46;1.50;99.90
42201;DHT22;27869;51.442;7.540;2024-01-15T05:35:13;1.50;99.90
42201;DHT22;27869;51.442;7.540;2024-01-15T05:37:43;1.50;99.90
42201;DHT22;27869;51.442;7.540;2024-01-15T05:40:11;1.50;99.90
42201;DHT22;27869;51.442;7.540;2024-01-15T05:42:39;1.50;99.90
42201;DHT22;27869;51.442;7.540;2024-01-15T05:45:06;1.50;99.90
42201;DHT22;27869;51.442;7.540;2024-01-15T05:47:33;1.50;99.90
42201;DHT22;27869;51.442;7.540;2024-01-15T05:50:02;1.50;99.90
42201;DHT22;27869;51.442;7.540;2024-01-15T05:52:29;1.50;99.90
42201;DHT22;27869;51.442;7.540;2024-01-15T05:54:56;1.50;99.90
42201;DHT22;27869;51.442;7.540;2024-01-15T05:57:23;1.50;99.90
42201;DHT22;27869;51.442;7.540;2024-01-15T05:59:50;1.50;99.90
42201;DHT22;27869;51.442;7.540;2024-01-15T06:02:16;1.50;99.90
42201;DHT22;27869;51.442;7.540;2024-01-15T06:04:43;1.50;99.90
42201;DHT22;27869;51.442;7.540;2024-01-15T06:07:12;1.50;99.90
42201;DHT22;27869;51.442;7.540;2024-01-15T06:09:38;1.50;99.90
42201;DHT22;27869;51.442;7.540;2024-01-15T06:12:07;1.60;99.90
42201;DHT22;27869;51.442;7.540;2024-01-15T06:14:34;1.60;99.90
42201;DHT22;27869;51.442;7.540;2024-01-15T06:17:01;1.60;99.90
42201;DHT22;27869;51.442;7.540;2024-01-15T06:19:28;1.50;99.90
42201;DHT22;27869;51.442;7.540;2024-01-15T06:21:55;1.60;99.90
42201;DHT22;27869;51.442;7.540;2024-01-15T06:24:23;1.60;99.90
42201;DHT22;27869;51.442;7.540;2024-01-15T06:26:50;1.50;99.90
42201;DHT22;27869;51.442;7.540;2024-01-15T06:29:17;1.60;99.90
42201;DHT22;27869;51.442;7.540;2024-01-15T06:31:44;1.60;99.90
42201;DHT22;27869;51.442;7.540;2024-01-15T06:34:10;1.60;99.90
42201;DHT22;27869;51.442;7.540;2024-01-15T06:36:37;1.50;99.90
42201;DHT22;27869;51.442;7.540;2024-01-15T06:39:04;1.60;99.90
42201;DHT22;27869;51.442;7.540;2024-01-15T06:41:33;1.60;99.90
42201;DHT22;27869;51.442;7.540;2024-01-15T06:43:59;1.60;99.90
42201;DHT22;27869;51.442;7.540;2024-01-15T06:46:26;1.50;99.90
42201;DHT22;27869;51.442;7.540;2024-01-15T06:48:53;1.60;99.90
42201;DHT22;27869;51.442;7.540;2024-01-15T06:51:20;1.60;99.90
42201;DHT22;27869;51.442;7.540;2024-01-15T06:53:47;1.60;99.90
42201;DHT22;27869;51.442;7.540;2024-01-15T06:56:14;1.60;99.90
42201;DHT22;27869;51.442;7.540;2024-01-15T06:58:42;1.60;99.90
42201;DHT22;27869;51.442;7.540;2024-01-15T07:01:09;1.60;99.90
42201;DHT22;27869;51.442;7.540;2024-01-15T07:03:36;1.60;99.90
42201;DHT22;27869;51.442;7.540;2024-01-15T07:06:03;1.60;99.90
42201;DHT22;27869;51.442;7.540;2024-01-15T07:08:30;1.60;99.90
42201;DHT22;27869;51.442;7.540;2024-01-15T07:10:57;1.50;99.90
42201;DHT22;27869;51.442;7.540;2024-01-15T07:13:24;1.50;99.90
42201;DHT22;27869;51.442;7.540;2024-01-15T07:15:52;1.50;99.90
42201;DHT22;27869;51.442;7.540;2024-01-15T07:18:19;1.60;99.90
42201;DHT22;27869;51.442;7.540;2024-01-15T07:20:46;1.60;99.90
42201;DHT22;27869;51.442;7.540;2024-01-15T07:23:13;1.60;99.90
42201;DHT22;27869;51.442;7.540;2024-01-15T07:25:40;1.60;99.90
42201;DHT22;27869;51.442;7.540;2024-01-15T07:28:07;1.60;99.90
42201;DHT22;27869;51.442;7.540;2024-01-15T07:30:34;1.60;99.90
42201;DHT22;27869;51.442;7.540;2024-01-15T07:33:02;1.60;99.90
42201;DHT22;27869;51.442;7.540;2024-01-15T07:35:29;1.60;99.90
42201;DHT22;27869;51.442;7.540;2024-01-15T07:37:57;1.60;99.90
42201;DHT22;27869;51.442;7.540;2024-01-15T07:40:24;1.60;99.90
42201;DHT22;27869;51.442;7.540;2024-01-15T07:42:51;1.60;99.90
42201;DHT22;27869;51.442;7.540;2024-01-15T07:45:18;1.50;99.90
42201;DHT22;27869;51.442;7.540;2024-01-15T07:47:45;1.60;99.90
42201;DHT22;27869;51.442;7.540;2024-01-15T07:50:13;1.60;99.90
42201;DHT22;27869;51.442;7.540;2024-01-15T07:52:42;1.60;99.90
42201;DHT22;27869;51.442;7.540;2024-01-15T07:55:09;1.60;99.90
42201;DHT22;27869;51.442;7.540;2024-01-15T07:57:36;1.60;99.90
42201;DHT22;27869;51.442;7.540;2024-01-15T08:00:03;1.60;99.90
42201;DHT22;27869;51.442;7.540;2024-01-15T08:02:31;1.60;99.90
42201;DHT22;27869;51.442;7.540;2024-01-15T08:04:58;1.60;99.90
42201;DHT22;27869;51.442;7.540;2024-01-15T08:07:27;1.60;99.90
42201;DHT22;27869;51.442;7.540;2024-01-15T08:09:54;1.60;99.90
42201;DHT22;27869;51.442;7.540;2024-01-15T08:12:20;1.60;99.90
42201;DHT22;27869;51.442;7.540;2024-01-15T08:14:48;1.60;99.90
42201;DHT22;27869;51.442;7.540;2024-01-15T08:17:14;1.60;99.90
42201;DHT22;27869;51.442;7.540;2024-01-15T08:19:42;1.60;99.90
42201;DHT22;27869;51.442;7.540;2024-01-15T08:22:09;1.60;99.90
42201;DHT22;27869;51.442;7.540;2024-01-15T08:24:37;1.60;99.90
42201;DHT22;27869;51.442;7.540;2024-01-15T08:27:04;1.60;99.90
42201;DHT22;27869;51.442;7.540;2024-01-15T08:29:31;1.60;99.90
42201;DHT22;27869;51.442;7.540;2024-01-15T08:32:00;1.60;99.90
42201;DHT22;27869;51.442;7.540;2024-01-15T08:34:27;1.60;99.90
42201;DHT22;27869;51.442;7.540;2024-01-15T08:36:54;1.60;99.90
42201;DHT22;27869;51.442;7.540;2024-01-15T08:39:21;1.60;99.90
42201;DHT22;27869;51.442;7.540;2024-01-15T08:41:49;1.60;99.90
42201;DHT22;27869;51.442;7.540;2024-01-15T08:44:16;1.60;99.90
42201;DHT22;27869;51.442;7.540;2024-01-15T08:46:43;1.60;99.90
42201;DHT22;27869;51.442;7.540;2024-01-15T08:49:10;1.50;99.90
42201;DHT22;27869;51.442;7.540;2024-01-15T08:51:37;1.50;99.90
42201;DHT22;27869;51.442;7.540;2024-01-15T08:54:04;1.50;99.90
42201;DHT22;27869;51.442;7.540;2024-01-15T08:56:33;1.50;99.90
42201;DHT22;27869;51.442;7.540;2024-01-15T08:59:02;1.50;99.90
42201;DHT22;27869;51.442;7.540;2024-01-15T09:01:29;1.60;99.90
42201;DHT22;27869;51.442;7.540;2024-01-15T09:03:56;1.60;99.90
42201;DHT22;27869;51.442;7.540;2024-01-15T09:06:23;1.50;99.90
42201;DHT22;27869;51.442;7.540;2024-01-15T09:08:50;1.50;99.90
42201;DHT22;27869;51.442;7.540;2024-01-15T09:11:17;1.50;99.90
42201;DHT22;27869;51.442;7.540;2024-01-15T09:13:44;1.50;99.90
42201;DHT22;27869;51.442;7.540;2024-01-15T09:16:12;1.50;99.90
42201;DHT22;27869;51.442;7.540;2024-01-15T09:18:39;1.40;99.90
42201;DHT22;27869;51.442;7.540;2024-01-15T09:21:06;1.40;99.90
42201;DHT22;27869;51.442;7.540;2024-01-15T09:23:33;1.40;99.90
42201;DHT22;27869;51.442;7.540;2024-01-15T09:26:01;1.40;99.90
42201;DHT22;27869;51.442;7.540;2024-01-15T09:28:28;1.40;99.90
42201;DHT22;27869;51.442;7.540;2024-01-15T09:30:54;1.40;99.90
42201;DHT22;27869;51.442;7.540;2024-01-15T09:33:23;1.40;99.90
42201;DHT22;27869;51.442;7.540;2024-01-15T09:35:50;1.40;99.90
42201;DHT22;27869;51.442;7.540;2024-01-15T09:38:17;1.40;99.90
42201;DHT22;27869;51.442;7.540;2024-01-15T09:40:46;1.40;99.90
42201;DHT22;27869;51.442;7.540;2024-01-15T09:43:14;1.40;99.90
42201;DHT22;27869;51.442;7.540;2024-01-15T09:45:42;1.40;99.90
42201;DHT22;27869;51.442;7.540;2024-01-15T09:48:09;1.40;99.90
42201;DHT22;27869;51.442;7.540;2024-01-15T09:50:38;1.40;99.90
42201;DHT22;27869;51.442;7.540;2024-01-15T09:53:05;1.40;99.90
42201;DHT22;27869;51.442;7.540;2024-01-15T09:55:32;1.40;99.90
42201;DHT22;27869;51.442;7.540;2024-01-15T09:58:00;1.40;99.90
42201;DHT22;27869;51.442;7.540;2024-01-15T10:00:29;1.40;99.90
42201;DHT22;27869;51.442;7.540;2024-01-15T10:02:56;1.40;99.90
42201;DHT22;27869;51.442;7.540;2024-01-15T10:05:23;1.30;99.90
42201;DHT22;27869;51.442;7.540;2024-01-15T10:07:53;1.30;99.90
42201;DHT22;27869;51.442;7.540;2024-01-15T10:10:21;1.30;99.90
42201;DHT22;27869;51.442;7.540;2024-01-15T10:12:49;1.30;99.90
42201;DHT22;27869;51.442;7.540;2024-01-15T10:15:16;1.30;99.90
42201;DHT22;27869;51.442;7.540;2024-01-15T10:17:43;1.30;99.90
42201;DHT22;27869;51.442;7.540;2024-01-15T10:20:11;1.30;99.90
42201;DHT22;27869;51.442;7.540;2024-01-15T10:22:40;1.30;99.90
42201;DHT22;27869;51.442;7.540;2024-01-15T10:25:11;1.30;99.90
42201;DHT22;27869;51.442;7.540;2024-01-15T10:27:38;1.30;99.90
42201;DHT22;27869;51.442;7.540;2024-01-15T10:30:07;1.30;99.90
42201;DHT22;27869;51.442;7.540;2024-01-15T10:32:34;1.30;99.90
42201;DHT22;27869;51.442;7.540;2024-01-15T10:35:01;1.30;99.90
42201;DHT22;27869;51.442;7.540;2024-01-15T10:37:28;1.30;99.90
42201;DHT22;27869;51.442;7.540;2024-01-15T10:39:54;1.30;99.90
42201;DHT22;27869;51.442;7.540;2024-01-15T10:42:23;1.30;99.90
42201;DHT22;27869;51.442;7.540;2024-01-15T10:44:50;1.30;99.90
42201;DHT22;27869;51.442;7.540;2024-01-15T10:47:17;1.30;99.90
42201;DHT22;27869;51.442;7.540;2024-01-15T10:49:45;1.30;99.90
42201;DHT22;27869;51.442;7.540;2024-01-15T10:52:12;1.40;99.90
42201;DHT22;27869;51.442;7.540;2024-01-15T10:54:41;1.40;99.90
42201;DHT22;27869;51.442;7.540;2024-01-15T10:57:09;1.40;99.90
42201;DHT22;27869;51.442;7.540;2024-01-15T10:59:38;1.40;99.90
42201;DHT22;27869;51.442;7.540;2024-01-15T11:02:05;1.40;99.90
42201;DHT22;27869;51.442;7.540;2024-01-15T11:04:32;1.40;99.90
42201;DHT22;27869;51.442;7.540;2024-01-15T11:07:01;1.40;99.90
42201;DHT22;27869;51.442;7.540;2024-01-15T11:09:29;1.40;99.90
42201;DHT22;27869;51.442;7.540;2024-01-15T11:12:07;1.50;99.90
42201;DHT22;27869;51.442;7.540;2024-01-15T11:14:34;1.50;99.90
42201;DHT22;27869;51.442;7.540;2024-01-15T11:17:03;1.50;99.90
42201;DHT22;27869;51.442;7.540;2024-01-15T11:19:37;1.50;99.90
42201;DHT22;27869;51.442;7.540;2024-01-15T11:22:07;1.50;99.90
42201;DHT22;27869;51.442;7.540;2024-01-15T11:24:35;1.40;99.90
42201;DHT22;27869;51.442;7.540;2024-01-15T11:27:03;1.50;99.90
42201;DHT22;27869;51.442;7.540;2024-01-15T11:29:31;1.50;99.90
42201;DHT22;27869;51.442;7.540;2024-01-15T11:32:03;1.50;99.90
42201;DHT22;27869;51.442;7.540;2024-01-15T11:34:50;1.50;99.90
42201;DHT22;27869;51.442;7.540;2024-01-15T11:37:20;1.60;99.90
42201;DHT22;27869;51.442;7.540;2024-01-15T11:39:54;1.60;99.90
42201;DHT22;27869;51.442;7.540;2024-01-15T11:42:22;1.60;99.90
42201;DHT22;27869;51.442;7.540;2024-01-15T11:44:49;1.50;99.90
42201;DHT22;27869;51.442;7.540;2024-01-15T11:50:07;1.50;99.90
42201;DHT22;27869;51.442;7.540;2024-01-15T11:52:36;1.50;99.90
42201;DHT22;27869;51.442;7.540;2024-01-15T11:55:14;1.50;99.90
42201;DHT22;27869;51.442;7.540;2024-01-15T11:57:46;1.60;99.90
42201;DHT22;27869;51.442;7.540;2024-01-15T12:00:14;1.60;99.90
42201;DHT22;27869;51.442;7.540;2024-01-15T12:02:43;1.60;99.90
42201;DHT22;27869;51.442;7.540;2024-01-15T12:05:11;1.60;99.90
42201;DHT22;27869;51.442;7.540;2024-01-15T12:07:42;1.60;99.90
42201;DHT22;27869;51.442;7.540;2024-01-15T12:10:10;1.70;99.90
42201;DHT22;27869;51.442;7.540;2024-01-15T12:12:51;1.70;99.90
42201;DHT22;27869;51.442;7.540;2024-01-15T12:15:21;1.70;99.90
42201;DHT22;27869;51.442;7.540;2024-01-15T12:17:49;1.70;99.90
42201;DHT22;27869;51.442;7.540;2024-01-15T12:20:17;1.70;99.90
42201;DHT22;27869;51.442;7.540;2024-01-15T12:22:45;1.60;99.90
42201;DHT22;27869;51.442;7.540;2024-01-15T12:25:12;1.60;99.90
42201;DHT22;27869;51.442;7.540;2024-01-15T12:27:40;1.70;99.90
42201;DHT22;27869;51.442;7.540;2024-01-15T12:30:10;1.70;99.90
42201;DHT22;27869;51.442;7.540;2024-01-15T12:32:37;1.70;99.90
42201;DHT22;27869;51.442;7.540;2024-01-15T12:35:06;1.70;99.90
42201;DHT22;27869;51.442;7.540;2024-01-15T12:37:35;1.70;99.90
42201;DHT22;27869;51.442;7.540;2024-01-15T12:40:02;1.70;99.90
42201;DHT22;27869;51.442;7.540;2024-01-15T12:42:30;1.70;99.90
42201;DHT22;27869;51.442;7.540;2024-01-15T12:44:57;1.70;99.90
42201;DHT22;27869;51.442;7.540;2024-01-15T12:47:24;1.80;99.90
42201;DHT22;27869;51.442;7.540;2024-01-15T12:49:51;1.80;99.90
42201;DHT22;27869;51.442;7.540;2024-01-15T12:52:21;1.90;99.90
42201;DHT22;27869;51.442;7.540;2024-01-15T12:54:48;1.80;99.90
42201;DHT22;27869;51.442;7.540;2024-01-15T12:57:15;1.90;99.90
42201;DHT22;27869;51.442;7.540;2024-01-15T12:59:43;1.90;99.90
42201;DHT22;27869;51.442;7.540;2024-01-15T13:02:10;1.90;99.90
42201;DHT22;27869;51.442;7.540;2024-01-15T13:04:37;1.90;99.90
42201;DHT22;27869;51.442;7.540;2024-01-15T13:07:05;1.90;99.90
42201;DHT22;27869;51.442;7.540;2024-01-15T13:09:34;1.90;99.90
42201;DHT22;27869;51.442;7.540;2024-01-15T13:12:02;1.90;99.90
42201;DHT22;27869;51.442;7.540;2024-01-15T13:14:29;1.90;99.90
42201;DHT22;27869;51.442;7.540;2024-01-15T13:16:56;1.90;99.90
42201;DHT22;27869;51.442;7.540;2024-01-15T13:19:24;1.90;99.90
42201;DHT22;27869;51.442;7.540;2024-01-15T13:21:51;1.80;99.90
42201;DHT22;27869;51.442;7.540;2024-01-15T13:24:19;1.90;99.90
42201;DHT22;27869;51.442;7.540;2024-01-15T13:26:47;1.90;99.90
42201;DHT22;27869;51.442;7.540;2024-01-15T13:29:14;1.90;99.90
42201;DHT22;27869;51.442;7.540;2024-01-15T13:31:43;1.90;99.90
42201;DHT22;27869;51.442;7.540;2024-01-15T13:34:12;1.90;99.90
42201;DHT22;27869;51.442;7.540;2024-01-15T13:36:39;1.90;99.90
42201;DHT22;27869;51.442;7.540;2024-01-15T13:39:06;1.90;99.90
42201;DHT22;27869;51.442;7.540;2024-01-15T13:41:35;1.90;99.90
42201;DHT22;27869;51.442;7.540;2024-01-15T13:44:03;2.00;99.90
42201;DHT22;27869;51.442;7.540;2024-01-15T13:46:30;2.00;99.90
42201;DHT22;27869;51.442;7.540;2024-01-15T13:48:57;2.00;99.90
42201;DHT22;27869;51.442;7.540;2024-01-15T13:51:24;2.00;99.90
42201;DHT22;27869;51.442;7.540;2024-01-15T13:53:51;1.90;99.90
42201;DHT22;27869;51.442;7.540;2024-01-15T13:56:18;1.90;99.90
42201;DHT22;27869;51.442;7.540;2024-01-15T13:58:46;1.90;99.90
42201;DHT22;27869;51.442;7.540;2024-01-15T14:01:15;1.90;99.90
42201;DHT22;27869;51.442;7.540;2024-01-15T14:03:43;1.90;99.90
42201;DHT22;27869;51.442;7.540;2024-01-15T14:06:10;1.90;99.90
42201;DHT22;27869;51.442;7.540;2024-01-15T14:08:37;1.80;99.90
42201;DHT22;27869;51.442;7.540;2024-01-15T14:11:04;1.80;99.90
42201;DHT22;27869;51.442;7.540;2024-01-15T14:13:32;1.80;99.90
42201;DHT22;27869;51.442;7.540;2024-01-15T14:15:59;1.90;99.90
42201;DHT22;27869;51.442;7.540;2024-01-15T14:18:27;1.90;99.90
42201;DHT22;27869;51.442;7.540;2024-01-15T14:20:54;1.90;99.90
42201;DHT22;27869;51.442;7.540;2024-01-15T14:23:21;1.90;99.90
42201;DHT22;27869;51.442;7.540;2024-01-15T14:25:48;1.80;99.90
42201;DHT22;27869;51.442;7.540;2024-01-15T14:28:15;1.90;99.90
42201;DHT22;27869;51.442;7.540;2024-01-15T14:30:42;1.90;99.90
42201;DHT22;27869;51.442;7.540;2024-01-15T14:33:09;1.90;99.90
42201;DHT22;27869;51.442;7.540;2024-01-15T14:35:37;1.90;99.90
42201;DHT22;27869;51.442;7.540;2024-01-15T14:38:04;1.80;99.90
42201;DHT22;27869;51.442;7.540;2024-01-15T14:40:33;1.80;99.90
42201;DHT22;27869;51.442;7.540;2024-01-15T14:43:00;1.70;99.90
42201;DHT22;27869;51.442;7.540;2024-01-15T14:45:27;1.70;99.90
42201;DHT22;27869;51.442;7.540;2024-01-15T14:47:55;1.70;99.90
42201;DHT22;27869;51.442;7.540;2024-01-15T14:50:23;1.70;99.90
42201;DHT22;27869;51.442;7.540;2024-01-15T14:52:52;1.60;99.90
42201;DHT22;27869;51.442;7.540;2024-01-15T14:55:19;1.60;99.90
42201;DHT22;27869;51.442;7.540;2024-01-15T14:57:48;1.60;99.90
42201;DHT22;27869;51.442;7.540;2024-01-15T15:00:16;1.60;99.90
42201;DHT22;27869;51.442;7.540;2024-01-15T15:02:43;1.60;99.90
42201;DHT22;27869;51.442;7.540;2024-01-15T15:05:10;1.60;99.90
42201;DHT22;27869;51.442;7.540;2024-01-15T15:07:38;1.60;99.90
42201;DHT22;27869;51.442;7.540;2024-01-15T15:10:08;1.60;99.90
42201;DHT22;27869;51.442;7.540;2024-01-15T15:12:36;1.60;99.90
42201;DHT22;27869;51.442;7.540;2024-01-15T15:15:04;1.60;99.90
42201;DHT22;27869;51.442;7.540;2024-01-15T15:17:32;1.60;99.90
42201;DHT22;27869;51.442;7.540;2024-01-15T15:20:00;1.60;99.90
42201;DHT22;27869;51.442;7.540;2024-01-15T15:22:28;1.60;99.90
42201;DHT22;27869;51.442;7.540;2024-01-15T15:24:55;1.60;99.90
42201;DHT22;27869;51.442;7.540;2024-01-15T15:27:23;1.60;99.90
42201;DHT22;27869;51.442;7.540;2024-01-15T15:29:52;1.60;99.90
42201;DHT22;27869;51.442;7.540;2024-01-15T15:32:19;1.60;99.90
42201;DHT22;27869;51.442;7.540;2024-01-15T15:34:46;1.50;99.90
42201;DHT22;27869;51.442;7.540;2024-01-15T15:37:13;1.50;99.90
42201;DHT22;27869;51.442;7.540;2024-01-15T15:39:42;1.60;99.90
42201;DHT22;27869;51.442;7.540;2024-01-15T15:42:09;1.60;99.90
42201;DHT22;27869;51.442;7.540;2024-01-15T15:44:37;1.60;99.90
42201;DHT22;27869;51.442;7.540;2024-01-15T15:47:09;1.60;99.90
42201;DHT22;27869;51.442;7.540;2024-01-15T15:49:35;1.60;99.90